createdAt,value
2022-07-29T00:00:00.359Z,1.7
2022-07-29T00:05:00.290Z,2.2
2022-07-29T00:10:00.242Z,3.0
2022-07-29T00:15:00.274Z,2.2
2022-07-29T00:20:00.227Z,2.3
2022-07-29T00:25:00.268Z,3.3
2022-07-29T00:30:00.324Z,2.3
2022-07-29T00:35:00.293Z,1.7
2022-07-29T00:40:00.261Z,2.7
2022-07-29T00:45:00.285Z,2.6
2022-07-29T00:50:00.292Z,3.3
2022-07-29T00:55:08.102Z,3.6
2022-07-29T01:00:00.329Z,2.4
2022-07-29T01:05:00.291Z,3.3
2022-07-29T01:10:00.294Z,3.6
2022-07-29T01:15:00.283Z,2.8
2022-07-29T01:20:00.314Z,2.7
2022-07-29T01:25:00.265Z,3.6
2022-07-29T01:30:00.291Z,2.6
2022-07-29T01:35:00.280Z,3.1
2022-07-29T01:40:00.357Z,3.9
2022-07-29T01:45:00.300Z,3.3
2022-07-29T01:50:00.273Z,4.5
2022-07-29T01:55:00.268Z,4.0
2022-07-29T02:00:00.300Z,2.8
2022-07-29T02:05:00.394Z,4.3
2022-07-29T02:10:00.272Z,3.1
2022-07-29T02:15:00.264Z,2.0
2022-07-29T02:20:00.333Z,2.5
2022-07-29T02:25:01.109Z,3.3
2022-07-29T02:30:00.257Z,1.5
2022-07-29T02:35:00.341Z,1.7
2022-07-29T02:40:00.223Z,1.1
2022-07-29T02:45:00.311Z,4.1
2022-07-29T02:50:00.874Z,2.7
2022-07-29T02:55:00.261Z,3.3
2022-07-29T03:00:00.291Z,3.2
2022-07-29T03:05:01.186Z,4.4
2022-07-29T03:10:00.270Z,3.8
2022-07-29T03:15:00.293Z,3.4
2022-07-29T03:20:00.286Z,4.5
2022-07-29T03:25:00.289Z,4.4
2022-07-29T03:30:00.252Z,3.7
2022-07-29T03:35:00.274Z,5.0
2022-07-29T03:40:00.274Z,5.6
2022-07-29T03:45:00.263Z,6.0
2022-07-29T03:50:00.254Z,4.9
2022-07-29T03:55:00.261Z,5.7
2022-07-29T04:00:00.295Z,3.5
2022-07-29T04:05:00.280Z,5.0
2022-07-29T04:10:00.578Z,6.5
2022-07-29T04:15:00.287Z,5.7
2022-07-29T04:20:00.268Z,5.2
2022-07-29T04:25:04.554Z,4.0
2022-07-29T04:30:00.280Z,3.9
2022-07-29T04:35:00.262Z,4.3
2022-07-29T04:40:00.292Z,4.7
2022-07-29T04:45:01.501Z,3.7
2022-07-29T04:50:00.269Z,3.8
2022-07-29T04:55:00.278Z,3.7
2022-07-29T05:00:00.346Z,4.5
2022-07-29T05:05:00.249Z,4.9
2022-07-29T05:10:00.258Z,5.3
2022-07-29T05:15:00.256Z,5.7
2022-07-29T05:20:00.282Z,6.1
2022-07-29T05:25:07.046Z,5.9
2022-07-29T05:30:00.240Z,6.4
2022-07-29T05:35:00.303Z,6.1
2022-07-29T05:40:00.326Z,7.2
2022-07-29T05:45:00.281Z,6.5
2022-07-29T05:50:00.255Z,4.4
2022-07-29T05:55:00.253Z,4.4
2022-07-29T06:00:00.379Z,4.5
2022-07-29T06:05:00.522Z,3.0
2022-07-29T06:10:00.226Z,3.7
2022-07-29T06:15:01.378Z,2.7
2022-07-29T06:20:00.289Z,3.8
2022-07-29T06:25:00.253Z,3.6
2022-07-29T06:30:00.285Z,3.9
2022-07-29T06:35:33.270Z,4.8
2022-07-29T06:40:00.243Z,4.6
2022-07-29T06:45:00.283Z,3.9
2022-07-29T06:50:00.249Z,3.2
2022-07-29T06:55:00.254Z,4.4
2022-07-29T07:00:00.291Z,5.2
2022-07-29T07:05:00.280Z,5.2
2022-07-29T07:10:00.291Z,5.5
2022-07-29T07:15:00.283Z,4.0
2022-07-29T07:20:00.305Z,4.9
2022-07-29T07:25:00.346Z,3.7
2022-07-29T07:30:00.261Z,4.0
2022-07-29T07:35:00.271Z,5.3
2022-07-29T07:40:00.266Z,7.6
2022-07-29T07:45:13.779Z,6.5
2022-07-29T07:50:00.265Z,6.1
2022-07-29T07:55:00.251Z,6.3
2022-07-29T08:00:00.243Z,8.9
2022-07-29T08:05:00.283Z,8.4
2022-07-29T08:10:00.253Z,7.2
2022-07-29T08:15:00.265Z,8.0
2022-07-29T08:20:00.313Z,5.1
2022-07-29T08:25:00.229Z,7.3
2022-07-29T08:30:00.288Z,4.7
2022-07-29T08:35:00.276Z,7.4
2022-07-29T08:40:00.344Z,9.0
2022-07-29T08:45:00.287Z,8.4
2022-07-29T08:50:00.240Z,10.4
2022-07-29T08:55:00.248Z,9.2
2022-07-29T09:00:10.756Z,5.3
2022-07-29T09:05:00.271Z,5.6
2022-07-29T09:10:00.225Z,7.2
2022-07-29T09:15:00.283Z,4.0
2022-07-29T09:20:00.297Z,7.0
2022-07-29T09:25:00.257Z,7.5
2022-07-29T09:30:00.458Z,4.9
2022-07-29T09:35:00.235Z,9.4
2022-07-29T09:40:00.244Z,9.7
2022-07-29T09:45:00.242Z,6.4
2022-07-29T09:50:00.962Z,6.8
2022-07-29T09:55:00.224Z,6.7
2022-07-29T10:00:00.270Z,9.4
2022-07-29T10:05:00.257Z,7.5
2022-07-29T10:10:00.285Z,8.0
2022-07-29T10:15:00.358Z,12.5
2022-07-29T10:20:01.196Z,7.2
2022-07-29T10:25:00.248Z,11.3
2022-07-29T10:30:00.287Z,6.4
2022-07-29T10:35:00.289Z,7.6
2022-07-29T10:40:00.283Z,5.8
2022-07-29T10:45:00.238Z,6.8
2022-07-29T10:50:01.821Z,4.6
2022-07-29T10:55:00.283Z,5.1
2022-07-29T11:00:00.293Z,7.7
2022-07-29T11:05:00.236Z,3.7
2022-07-29T11:10:00.398Z,5.9
2022-07-29T11:15:00.567Z,8.3
2022-07-29T11:20:00.246Z,6.7
2022-07-29T11:25:00.260Z,3.8
2022-07-29T11:30:01.498Z,8.1
2022-07-29T11:35:00.247Z,4.9
2022-07-29T11:40:02.547Z,10.7
2022-07-29T11:45:44.557Z,8.5
2022-07-29T11:50:00.352Z,8.8
2022-07-29T11:55:10.234Z,12.8
2022-07-29T12:00:12.075Z,9.4
2022-07-29T12:05:00.245Z,9.7
2022-07-29T12:10:00.261Z,5.9
2022-07-29T12:15:02.069Z,7.2
2022-07-29T12:20:02.621Z,8.3
2022-07-29T12:25:32.164Z,7.3
2022-07-29T12:30:00.314Z,6.9
2022-07-29T12:35:00.234Z,4.1
2022-07-29T12:40:00.296Z,7.4
2022-07-29T12:45:00.244Z,10.0
2022-07-29T12:50:00.270Z,9.0
2022-07-29T12:55:00.240Z,7.9
2022-07-29T13:00:00.314Z,5.9
2022-07-29T13:05:01.264Z,7.1
2022-07-29T13:10:00.264Z,6.0
2022-07-29T13:15:00.238Z,7.7
2022-07-29T13:20:00.258Z,8.0
2022-07-29T13:25:00.226Z,4.8
2022-07-29T13:30:00.276Z,6.4
2022-07-29T13:35:00.231Z,8.1
2022-07-29T13:40:00.863Z,10.7
2022-07-29T13:45:00.579Z,6.0
2022-07-29T13:50:00.315Z,6.4
2022-07-29T13:55:00.433Z,10.7
2022-07-29T14:00:00.327Z,5.9
2022-07-29T14:05:06.304Z,1.7
2022-07-29T14:10:00.269Z,2.7
2022-07-29T14:15:00.279Z,1.2
2022-07-29T14:20:00.297Z,2.9
2022-07-29T14:25:08.700Z,3.7
2022-07-29T14:30:00.293Z,8.3
2022-07-29T14:35:00.258Z,10.4
2022-07-29T14:40:00.291Z,6.5
2022-07-29T14:45:00.491Z,3.3
2022-07-29T14:50:00.281Z,5.9
2022-07-29T14:55:00.278Z,3.4
2022-07-29T15:00:00.296Z,3.9
2022-07-29T15:05:00.263Z,1.6
2022-07-29T15:10:00.282Z,2.3
2022-07-29T15:15:00.257Z,10.4
2022-07-29T15:20:00.306Z,9.5
2022-07-29T15:25:00.225Z,13.8
2022-07-29T15:30:00.296Z,10.2
2022-07-29T15:35:00.248Z,5.0
2022-07-29T15:40:00.510Z,4.8
2022-07-29T15:45:00.260Z,7.5
2022-07-29T15:50:00.330Z,2.0
2022-07-29T15:55:00.213Z,6.4
2022-07-29T16:00:00.282Z,3.7
2022-07-29T16:05:00.280Z,4.8
2022-07-29T16:10:00.296Z,5.6
2022-07-29T16:15:00.491Z,8.5
2022-07-29T16:20:00.288Z,8.6
2022-07-29T16:25:00.408Z,4.7
2022-07-29T16:30:01.974Z,3.9
2022-07-29T16:35:00.237Z,5.7
2022-07-29T16:40:00.601Z,7.8
2022-07-29T16:45:02.877Z,11.0
2022-07-29T16:50:00.248Z,10.0
2022-07-29T16:55:00.224Z,8.3
2022-07-29T17:00:00.361Z,6.8
2022-07-29T17:05:02.895Z,5.0
2022-07-29T17:10:04.285Z,6.7
2022-07-29T17:15:00.264Z,11.6
2022-07-29T17:20:00.323Z,5.6
2022-07-29T17:25:00.932Z,7.2
2022-07-29T17:30:00.300Z,6.1
2022-07-29T17:35:00.225Z,8.1
2022-07-29T17:40:00.776Z,6.4
2022-07-29T17:45:00.253Z,5.3
2022-07-29T17:50:00.293Z,5.8
2022-07-29T17:55:00.246Z,5.3
2022-07-29T18:00:00.281Z,6.4
2022-07-29T18:05:02.764Z,5.9
2022-07-29T18:10:01.062Z,6.5
2022-07-29T18:15:00.236Z,7.2
2022-07-29T18:20:00.269Z,4.6
2022-07-29T18:25:00.234Z,5.3
2022-07-29T18:30:05.093Z,4.1
2022-07-29T18:35:00.255Z,7.5
2022-07-29T18:40:00.270Z,7.0
2022-07-29T18:45:00.248Z,7.0
2022-07-29T18:50:00.272Z,6.0
2022-07-29T18:55:00.205Z,7.8
2022-07-29T19:00:00.284Z,7.1
2022-07-29T19:05:00.232Z,7.2
2022-07-29T19:10:00.284Z,6.2
2022-07-29T19:15:00.302Z,6.2
2022-07-29T19:20:00.262Z,5.7
2022-07-29T19:25:00.383Z,4.4
2022-07-29T19:30:00.328Z,5.8
2022-07-29T19:35:00.270Z,4.7
2022-07-29T19:40:00.350Z,4.2
2022-07-29T19:45:00.329Z,4.2
2022-07-29T19:50:00.293Z,3.5
2022-07-29T19:55:07.483Z,4.1
2022-07-29T20:00:00.284Z,4.6
2022-07-29T20:05:00.233Z,4.6
2022-07-29T20:10:00.250Z,3.6
2022-07-29T20:15:00.271Z,3.8
2022-07-29T20:20:00.284Z,2.9
2022-07-29T20:25:00.212Z,3.7
2022-07-29T20:30:00.288Z,2.1
2022-07-29T20:35:00.220Z,4.3
2022-07-29T20:40:00.321Z,5.2
2022-07-29T20:45:00.273Z,4.2
2022-07-29T20:50:00.261Z,4.6
2022-07-29T20:55:00.215Z,5.5
2022-07-29T21:00:00.320Z,4.4
2022-07-29T21:05:00.206Z,3.7
2022-07-29T21:10:00.311Z,4.9
2022-07-29T21:15:00.257Z,3.8
2022-07-29T21:20:00.269Z,5.9
2022-07-29T21:25:00.217Z,5.3
2022-07-29T21:30:00.469Z,5.0
2022-07-29T21:35:00.212Z,4.5
2022-07-29T21:40:00.284Z,3.5
2022-07-29T21:45:00.279Z,3.1
2022-07-29T21:50:00.262Z,4.4
2022-07-29T21:55:00.206Z,3.5
2022-07-29T22:00:03.413Z,4.7
2022-07-29T22:05:00.217Z,3.7
2022-07-29T22:10:00.309Z,4.4
2022-07-29T22:15:00.272Z,4.1
2022-07-29T22:20:00.259Z,4.1
2022-07-29T22:25:00.283Z,6.9
2022-07-29T22:30:00.296Z,4.9
2022-07-29T22:35:00.206Z,4.6
2022-07-29T22:40:00.319Z,3.7
2022-07-29T22:45:00.265Z,4.2
2022-07-29T22:50:00.295Z,3.9
2022-07-29T22:55:00.362Z,4.6
2022-07-29T23:00:00.395Z,3.9
2022-07-29T23:05:00.306Z,3.9
2022-07-29T23:10:00.279Z,2.9
2022-07-29T23:15:00.256Z,4.7
2022-07-29T23:20:00.979Z,4.4
2022-07-29T23:25:00.224Z,3.9
2022-07-29T23:30:00.286Z,3.8
2022-07-29T23:35:00.337Z,5.1
2022-07-29T23:40:00.216Z,3.8
2022-07-29T23:45:00.256Z,4.1
2022-07-29T23:50:00.269Z,4.2
2022-07-29T23:55:36.265Z,3.1
